This is the latest recevied weather packets stored in our database for station/object N0HEQ. If no packets are shown the sender has not sent any weather packets the latest 10 day(s).
| Time | Temp. | Humidity | Pressure | Rain* | Wind** | Luminosity | Snow |
|---|---|---|---|---|---|---|---|
| 1777931367 | 19.44° C | 24% | 1010.1 hPa | 0 mm | - | 70 W/m² | - |
| 1777931063 | 20° C | 24% | 1010.3 hPa | 0 mm | - | 108 W/m² | - |
| 1777930760 | 20.56° C | 24% | 1010.4 hPa | 0 mm | - | 150 W/m² | - |
| 1777930456 | 21.11° C | 24% | 1010.4 hPa | 0 mm | - | 191 W/m² | - |
| 1777930154 | 20.56° C | 24% | 1010.6 hPa | 0 mm | - | 278 W/m² | - |
| 1777929849 | 20.56° C | 25% | 1010.4 hPa | 0 mm | - | 199 W/m² | - |
| 1777929548 | 21.11° C | 24% | 1010.6 hPa | 0 mm | - | 238 W/m² | - |
| 1777929243 | 21.11° C | 24% | 1010.6 hPa | 0 mm | - | 309 W/m² | - |
| 1777928941 | 21.67° C | 24% | 1010.6 hPa | 0 mm | - | 276 W/m² | - |
| 1777928637 | 21.67° C | 23% | 1010.4 hPa | 0 mm | - | 234 W/m² | - |
| 1777928334 | 22.22° C | 23% | 1010.7 hPa | 0 mm | - | 208 W/m² | - |
| 1777928032 | 23.33° C | 22% | 1010.7 hPa | 0 mm | - | 280 W/m² | - |
| 1777927730 | 22.78° C | 21% | 1011.1 hPa | 0 mm | - | 898 W/m² | - |
| 1777927429 | 23.33° C | 22% | 1011 hPa | 0 mm | - | 893 W/m² | - |
| 1777927128 | 23.33° C | 21% | 1011.1 hPa | 0 mm | - | 898 W/m² | - |
| 1777926824 | 22.22° C | 24% | 1011.3 hPa | 0 mm | - | 795 W/m² | - |
| 1777926520 | 22.78° C | 22% | 1011.3 hPa | 0 mm | - | 658 W/m² | - |
| 1777926217 | 22.78° C | 23% | 1011.4 hPa | 0 mm | - | 767 W/m² | - |
| 1777925914 | 23.89° C | 22% | 1011.4 hPa | 0 mm | - | 939 W/m² | - |
| 1777925611 | 22.78° C | 23% | 1011.4 hPa | 0 mm | - | 842 W/m² | - |
| 1777925308 | 23.33° C | 23% | 1011.3 hPa | 0 mm | - | 825 W/m² | - |
| 1777925005 | 21.67° C | 24% | 1011.5 hPa | 0 mm | - | 961 W/m² | - |
| 1777924701 | 22.22° C | 24% | 1011.4 hPa | 0 mm | - | 663 W/m² | - |
| 1777924397 | 21.67° C | 25% | 1011.3 hPa | 0 mm | - | 295 W/m² | - |
| 1777924094 | 22.22° C | 24% | 1011.4 hPa | 0 mm | - | 484 W/m² | - |
* Rain latest hour (hover to see other rain measurements)
** Current wind speed in m/s (hover to see current wind gust speed)